Terminal Aerodrome Forecast
Issued by NWS

Home | Current Version | Previous Version | Graphics & Text | Print | Product List | Glossary On
Versions: 1 2 3 4 5 6 7 8 9 10 11 12 13 14 15 16 17 18 19 20 21 22 23 24 25 26 27 28 29 30
000
FTUS42 KMHX 260400 AAA
TAFPGV
TAF AMD
KPGV 260448Z 2605/2624 00000KT 3SM BR SKC
      TEMPO 2605/2607 3/4SM BR VV005
     FM261230 00000KT P6SM SKC
     FM261600 VRB03KT P6SM FEW025
      AMD LTD TO CLD VIS AND WIND=

USA.gov is the U.S. government's official web portal to all federal, state and local government web resources and services.